sensor_id;sensor_type;location;lat;lon;timestamp;P1;durP1;ratioP1;P2;durP2;ratioP2
24557;SDS011;12726;49.148;8.582;2022-10-16T00:02:24;1.52;;;0.90;;
24557;SDS011;12726;49.148;8.582;2022-10-16T00:05:10;1.55;;;0.70;;
24557;SDS011;12726;49.148;8.582;2022-10-16T00:07:57;3.08;;;0.90;;
24557;SDS011;12726;49.148;8.582;2022-10-16T00:10:42;0.93;;;0.70;;
24557;SDS011;12726;49.148;8.582;2022-10-16T00:13:28;1.20;;;0.80;;
24557;SDS011;12726;49.148;8.582;2022-10-16T00:16:13;1.60;;;0.90;;
24557;SDS011;12726;49.148;8.582;2022-10-16T00:19:00;1.92;;;0.70;;
24557;SDS011;12726;49.148;8.582;2022-10-16T00:21:45;2.03;;;0.98;;
24557;SDS011;12726;49.148;8.582;2022-10-16T00:24:32;1.95;;;0.77;;
24557;SDS011;12726;49.148;8.582;2022-10-16T00:27:18;2.33;;;0.90;;
24557;SDS011;12726;49.148;8.582;2022-10-16T00:30:04;3.08;;;0.80;;
24557;SDS011;12726;49.148;8.582;2022-10-16T00:32:52;2.05;;;1.08;;
24557;SDS011;12726;49.148;8.582;2022-10-16T00:35:37;1.73;;;0.80;;
24557;SDS011;12726;49.148;8.582;2022-10-16T00:38:23;3.38;;;0.80;;
24557;SDS011;12726;49.148;8.582;2022-10-16T00:41:12;1.70;;;0.70;;
24557;SDS011;12726;49.148;8.582;2022-10-16T00:43:59;1.25;;;0.88;;
24557;SDS011;12726;49.148;8.582;2022-10-16T00:46:46;3.05;;;0.80;;
24557;SDS011;12726;49.148;8.582;2022-10-16T00:49:31;4.65;;;0.90;;
24557;SDS011;12726;49.148;8.582;2022-10-16T00:52:16;3.05;;;0.98;;
24557;SDS011;12726;49.148;8.582;2022-10-16T00:55:03;0.98;;;0.80;;
24557;SDS011;12726;49.148;8.582;2022-10-16T00:57:52;3.03;;;0.95;;
24557;SDS011;12726;49.148;8.582;2022-10-16T01:00:38;1.63;;;0.90;;
24557;SDS011;12726;49.148;8.582;2022-10-16T01:03:25;2.28;;;0.70;;
24557;SDS011;12726;49.148;8.582;2022-10-16T01:06:18;3.03;;;0.93;;
24557;SDS011;12726;49.148;8.582;2022-10-16T01:09:11;2.70;;;0.80;;
24557;SDS011;12726;49.148;8.582;2022-10-16T01:12:03;1.17;;;0.90;;
24557;SDS011;12726;49.148;8.582;2022-10-16T01:14:57;2.83;;;0.80;;
24557;SDS011;12726;49.148;8.582;2022-10-16T01:17:47;1.98;;;0.85;;
24557;SDS011;12726;49.148;8.582;2022-10-16T01:20:39;2.28;;;1.00;;
24557;SDS011;12726;49.148;8.582;2022-10-16T01:23:34;1.73;;;0.90;;
24557;SDS011;12726;49.148;8.582;2022-10-16T01:26:31;2.05;;;1.08;;
24557;SDS011;12726;49.148;8.582;2022-10-16T01:29:29;1.42;;;0.90;;
24557;SDS011;12726;49.148;8.582;2022-10-16T01:32:22;5.95;;;1.05;;
24557;SDS011;12726;49.148;8.582;2022-10-16T01:35:14;2.42;;;1.00;;
24557;SDS011;12726;49.148;8.582;2022-10-16T01:38:06;1.63;;;1.00;;
24557;SDS011;12726;49.148;8.582;2022-10-16T01:40:58;2.70;;;0.98;;
24557;SDS011;12726;49.148;8.582;2022-10-16T01:43:48;1.73;;;0.93;;
24557;SDS011;12726;49.148;8.582;2022-10-16T01:46:40;2.90;;;1.00;;
24557;SDS011;12726;49.148;8.582;2022-10-16T01:49:30;0.90;;;0.80;;
24557;SDS011;12726;49.148;8.582;2022-10-16T01:52:19;4.07;;;0.90;;
24557;SDS011;12726;49.148;8.582;2022-10-16T01:55:11;1.80;;;1.00;;
24557;SDS011;12726;49.148;8.582;2022-10-16T01:58:00;3.88;;;1.08;;
24557;SDS011;12726;49.148;8.582;2022-10-16T02:00:48;2.80;;;0.90;;
24557;SDS011;12726;49.148;8.582;2022-10-16T02:03:35;1.48;;;0.90;;
24557;SDS011;12726;49.148;8.582;2022-10-16T02:06:25;0.70;;;0.60;;
24557;SDS011;12726;49.148;8.582;2022-10-16T02:09:11;0.88;;;0.70;;
24557;SDS011;12726;49.148;8.582;2022-10-16T02:11:59;1.35;;;0.85;;
24557;SDS011;12726;49.148;8.582;2022-10-16T02:14:51;1.00;;;0.70;;
24557;SDS011;12726;49.148;8.582;2022-10-16T02:17:37;2.35;;;1.27;;
24557;SDS011;12726;49.148;8.582;2022-10-16T02:20:25;0.98;;;0.77;;
24557;SDS011;12726;49.148;8.582;2022-10-16T02:23:14;0.85;;;0.85;;
24557;SDS011;12726;49.148;8.582;2022-10-16T02:26:09;3.42;;;1.00;;
24557;SDS011;12726;49.148;8.582;2022-10-16T02:29:00;1.33;;;0.90;;
24557;SDS011;12726;49.148;8.582;2022-10-16T02:31:50;3.45;;;1.20;;
24557;SDS011;12726;49.148;8.582;2022-10-16T02:34:41;1.00;;;0.90;;
24557;SDS011;12726;49.148;8.582;2022-10-16T02:37:28;2.30;;;0.90;;
24557;SDS011;12726;49.148;8.582;2022-10-16T02:40:14;2.10;;;0.70;;
24557;SDS011;12726;49.148;8.582;2022-10-16T02:43:02;1.83;;;0.80;;
24557;SDS011;12726;49.148;8.582;2022-10-16T02:45:48;1.85;;;0.88;;
24557;SDS011;12726;49.148;8.582;2022-10-16T02:48:34;7.00;;;1.30;;
24557;SDS011;12726;49.148;8.582;2022-10-16T02:51:19;2.28;;;0.82;;
24557;SDS011;12726;49.148;8.582;2022-10-16T02:54:06;2.17;;;1.00;;
24557;SDS011;12726;49.148;8.582;2022-10-16T02:56:52;4.20;;;1.10;;
24557;SDS011;12726;49.148;8.582;2022-10-16T02:59:37;2.15;;;1.10;;
24557;SDS011;12726;49.148;8.582;2022-10-16T03:02:23;0.95;;;0.88;;
24557;SDS011;12726;49.148;8.582;2022-10-16T03:05:09;1.42;;;1.02;;
24557;SDS011;12726;49.148;8.582;2022-10-16T03:07:55;1.45;;;1.17;;
24557;SDS011;12726;49.148;8.582;2022-10-16T03:10:45;1.25;;;0.93;;
24557;SDS011;12726;49.148;8.582;2022-10-16T03:13:30;1.13;;;0.82;;
24557;SDS011;12726;49.148;8.582;2022-10-16T03:16:16;1.80;;;0.88;;
24557;SDS011;12726;49.148;8.582;2022-10-16T03:19:01;3.60;;;1.30;;
24557;SDS011;12726;49.148;8.582;2022-10-16T03:21:47;2.05;;;1.13;;
24557;SDS011;12726;49.148;8.582;2022-10-16T03:24:33;1.60;;;0.95;;
24557;SDS011;12726;49.148;8.582;2022-10-16T03:27:20;2.88;;;1.20;;
24557;SDS011;12726;49.148;8.582;2022-10-16T03:30:06;3.13;;;0.98;;
24557;SDS011;12726;49.148;8.582;2022-10-16T03:32:52;1.33;;;1.00;;
24557;SDS011;12726;49.148;8.582;2022-10-16T03:35:37;1.75;;;1.40;;
24557;SDS011;12726;49.148;8.582;2022-10-16T03:38:23;3.80;;;1.45;;
24557;SDS011;12726;49.148;8.582;2022-10-16T03:41:09;1.95;;;1.05;;
24557;SDS011;12726;49.148;8.582;2022-10-16T03:43:56;3.30;;;1.10;;
24557;SDS011;12726;49.148;8.582;2022-10-16T03:46:42;3.35;;;1.00;;
24557;SDS011;12726;49.148;8.582;2022-10-16T03:49:28;1.70;;;1.30;;
24557;SDS011;12726;49.148;8.582;2022-10-16T03:52:14;2.47;;;1.10;;
24557;SDS011;12726;49.148;8.582;2022-10-16T03:55:00;2.25;;;1.10;;
24557;SDS011;12726;49.148;8.582;2022-10-16T03:57:45;1.27;;;0.95;;
24557;SDS011;12726;49.148;8.582;2022-10-16T04:00:32;2.30;;;1.00;;
24557;SDS011;12726;49.148;8.582;2022-10-16T04:03:18;3.75;;;1.00;;
24557;SDS011;12726;49.148;8.582;2022-10-16T04:06:05;1.77;;;0.70;;
24557;SDS011;12726;49.148;8.582;2022-10-16T04:08:50;3.55;;;1.02;;
24557;SDS011;12726;49.148;8.582;2022-10-16T04:11:36;4.50;;;1.20;;
24557;SDS011;12726;49.148;8.582;2022-10-16T04:14:22;4.50;;;1.33;;
24557;SDS011;12726;49.148;8.582;2022-10-16T04:17:10;2.72;;;1.05;;
24557;SDS011;12726;49.148;8.582;2022-10-16T04:19:56;4.50;;;1.30;;
24557;SDS011;12726;49.148;8.582;2022-10-16T04:22:41;1.63;;;1.10;;
24557;SDS011;12726;49.148;8.582;2022-10-16T04:25:27;2.00;;;1.33;;
24557;SDS011;12726;49.148;8.582;2022-10-16T04:28:14;3.72;;;1.90;;
24557;SDS011;12726;49.148;8.582;2022-10-16T04:31:00;6.13;;;2.55;;
24557;SDS011;12726;49.148;8.582;2022-10-16T04:33:49;6.10;;;3.53;;
24557;SDS011;12726;49.148;8.582;2022-10-16T04:36:35;10.90;;;4.03;;
24557;SDS011;12726;49.148;8.582;2022-10-16T04:39:21;7.63;;;4.00;;
24557;SDS011;12726;49.148;8.582;2022-10-16T04:42:06;8.75;;;4.43;;
24557;SDS011;12726;49.148;8.582;2022-10-16T04:44:52;6.28;;;4.10;;
24557;SDS011;12726;49.148;8.582;2022-10-16T04:47:39;5.70;;;3.55;;
24557;SDS011;12726;49.148;8.582;2022-10-16T04:50:26;7.47;;;3.97;;
24557;SDS011;12726;49.148;8.582;2022-10-16T04:53:12;6.28;;;3.63;;
24557;SDS011;12726;49.148;8.582;2022-10-16T04:55:58;3.88;;;2.83;;
24557;SDS011;12726;49.148;8.582;2022-10-16T04:58:44;5.30;;;2.85;;
24557;SDS011;12726;49.148;8.582;2022-10-16T05:01:29;3.45;;;1.77;;
24557;SDS011;12726;49.148;8.582;2022-10-16T05:04:15;5.85;;;1.70;;
24557;SDS011;12726;49.148;8.582;2022-10-16T05:07:02;3.05;;;1.00;;
24557;SDS011;12726;49.148;8.582;2022-10-16T05:09:48;2.13;;;0.98;;
24557;SDS011;12726;49.148;8.582;2022-10-16T05:12:34;2.35;;;1.13;;
24557;SDS011;12726;49.148;8.582;2022-10-16T05:15:20;1.15;;;0.80;;
24557;SDS011;12726;49.148;8.582;2022-10-16T05:18:08;1.40;;;1.00;;
24557;SDS011;12726;49.148;8.582;2022-10-16T05:20:54;6.75;;;1.13;;
24557;SDS011;12726;49.148;8.582;2022-10-16T05:23:42;1.50;;;1.10;;
24557;SDS011;12726;49.148;8.582;2022-10-16T05:26:27;2.58;;;1.40;;
24557;SDS011;12726;49.148;8.582;2022-10-16T05:29:13;1.00;;;0.85;;
24557;SDS011;12726;49.148;8.582;2022-10-16T05:31:59;4.45;;;0.98;;
24557;SDS011;12726;49.148;8.582;2022-10-16T05:34:45;4.28;;;1.30;;
24557;SDS011;12726;49.148;8.582;2022-10-16T05:37:31;1.23;;;0.80;;
24557;SDS011;12726;49.148;8.582;2022-10-16T05:40:19;2.97;;;0.75;;
24557;SDS011;12726;49.148;8.582;2022-10-16T05:43:05;2.55;;;1.15;;
24557;SDS011;12726;49.148;8.582;2022-10-16T05:45:55;2.65;;;1.15;;
24557;SDS011;12726;49.148;8.582;2022-10-16T05:48:42;2.20;;;1.40;;
24557;SDS011;12726;49.148;8.582;2022-10-16T05:51:28;4.25;;;1.08;;
24557;SDS011;12726;49.148;8.582;2022-10-16T05:54:14;4.23;;;1.03;;
24557;SDS011;12726;49.148;8.582;2022-10-16T05:57:01;2.72;;;1.10;;
24557;SDS011;12726;49.148;8.582;2022-10-16T05:59:49;1.35;;;1.05;;
24557;SDS011;12726;49.148;8.582;2022-10-16T06:02:35;3.15;;;0.93;;
24557;SDS011;12726;49.148;8.582;2022-10-16T06:05:21;2.15;;;1.45;;
24557;SDS011;12726;49.148;8.582;2022-10-16T06:08:07;2.55;;;1.10;;
24557;SDS011;12726;49.148;8.582;2022-10-16T06:11:00;2.65;;;1.27;;
24557;SDS011;12726;49.148;8.582;2022-10-16T06:13:50;4.35;;;1.23;;
24557;SDS011;12726;49.148;8.582;2022-10-16T06:16:36;3.88;;;1.00;;
24557;SDS011;12726;49.148;8.582;2022-10-16T06:19:22;2.95;;;1.08;;
24557;SDS011;12726;49.148;8.582;2022-10-16T06:22:08;1.35;;;1.10;;
24557;SDS011;12726;49.148;8.582;2022-10-16T06:24:53;2.75;;;0.90;;
24557;SDS011;12726;49.148;8.582;2022-10-16T06:27:39;4.18;;;1.33;;
24557;SDS011;12726;49.148;8.582;2022-10-16T06:30:26;2.35;;;1.20;;
24557;SDS011;12726;49.148;8.582;2022-10-16T06:33:12;4.82;;;1.20;;
24557;SDS011;12726;49.148;8.582;2022-10-16T06:36:01;3.58;;;1.23;;
24557;SDS011;12726;49.148;8.582;2022-10-16T06:38:47;2.88;;;1.17;;
24557;SDS011;12726;49.148;8.582;2022-10-16T06:41:33;4.28;;;1.17;;
24557;SDS011;12726;49.148;8.582;2022-10-16T06:44:19;6.40;;;0.88;;
24557;SDS011;12726;49.148;8.582;2022-10-16T06:47:06;2.50;;;1.20;;
24557;SDS011;12726;49.148;8.582;2022-10-16T06:49:51;4.55;;;1.55;;
24557;SDS011;12726;49.148;8.582;2022-10-16T06:52:37;2.47;;;1.33;;
24557;SDS011;12726;49.148;8.582;2022-10-16T06:55:22;3.75;;;1.20;;
24557;SDS011;12726;49.148;8.582;2022-10-16T06:58:09;4.60;;;1.25;;
24557;SDS011;12726;49.148;8.582;2022-10-16T07:00:55;1.88;;;1.02;;
24557;SDS011;12726;49.148;8.582;2022-10-16T07:03:43;3.03;;;1.08;;
24557;SDS011;12726;49.148;8.582;2022-10-16T07:06:31;4.25;;;1.27;;
24557;SDS011;12726;49.148;8.582;2022-10-16T07:09:18;3.17;;;1.05;;
24557;SDS011;12726;49.148;8.582;2022-10-16T07:12:04;4.25;;;1.02;;
24557;SDS011;12726;49.148;8.582;2022-10-16T07:14:49;2.35;;;1.05;;
24557;SDS011;12726;49.148;8.582;2022-10-16T07:17:36;3.38;;;1.00;;
24557;SDS011;12726;49.148;8.582;2022-10-16T07:20:23;2.25;;;0.98;;
24557;SDS011;12726;49.148;8.582;2022-10-16T07:23:09;2.72;;;1.00;;
24557;SDS011;12726;49.148;8.582;2022-10-16T07:25:54;3.55;;;1.02;;
24557;SDS011;12726;49.148;8.582;2022-10-16T07:28:40;3.35;;;0.90;;
24557;SDS011;12726;49.148;8.582;2022-10-16T07:31:28;4.10;;;0.98;;
24557;SDS011;12726;49.148;8.582;2022-10-16T07:34:14;2.90;;;1.00;;
24557;SDS011;12726;49.148;8.582;2022-10-16T07:37:02;1.75;;;1.08;;
24557;SDS011;12726;49.148;8.582;2022-10-16T07:39:48;2.65;;;1.10;;
24557;SDS011;12726;49.148;8.582;2022-10-16T07:42:33;1.70;;;1.15;;
24557;SDS011;12726;49.148;8.582;2022-10-16T07:45:19;3.33;;;0.90;;
24557;SDS011;12726;49.148;8.582;2022-10-16T07:48:04;5.05;;;1.13;;
24557;SDS011;12726;49.148;8.582;2022-10-16T07:50:50;5.28;;;1.17;;
24557;SDS011;12726;49.148;8.582;2022-10-16T07:53:37;4.03;;;1.30;;
24557;SDS011;12726;49.148;8.582;2022-10-16T07:56:22;5.47;;;1.20;;
24557;SDS011;12726;49.148;8.582;2022-10-16T07:59:08;5.28;;;1.67;;
24557;SDS011;12726;49.148;8.582;2022-10-16T08:01:54;4.90;;;1.50;;
24557;SDS011;12726;49.148;8.582;2022-10-16T08:04:39;4.20;;;1.30;;
24557;SDS011;12726;49.148;8.582;2022-10-16T08:07:24;3.40;;;1.20;;
24557;SDS011;12726;49.148;8.582;2022-10-16T08:10:12;4.22;;;1.17;;
24557;SDS011;12726;49.148;8.582;2022-10-16T08:13:01;5.72;;;1.00;;
24557;SDS011;12726;49.148;8.582;2022-10-16T08:15:47;3.83;;;1.27;;
24557;SDS011;12726;49.148;8.582;2022-10-16T08:18:33;2.45;;;0.93;;
24557;SDS011;12726;49.148;8.582;2022-10-16T08:21:19;2.40;;;1.10;;
24557;SDS011;12726;49.148;8.582;2022-10-16T08:24:06;2.35;;;0.80;;
24557;SDS011;12726;49.148;8.582;2022-10-16T08:26:54;2.15;;;1.17;;
24557;SDS011;12726;49.148;8.582;2022-10-16T08:29:39;3.05;;;0.80;;
24557;SDS011;12726;49.148;8.582;2022-10-16T08:32:25;2.90;;;1.02;;
24557;SDS011;12726;49.148;8.582;2022-10-16T08:35:10;4.45;;;1.13;;
24557;SDS011;12726;49.148;8.582;2022-10-16T08:37:56;4.65;;;1.50;;
24557;SDS011;12726;49.148;8.582;2022-10-16T08:40:42;2.95;;;1.30;;
24557;SDS011;12726;49.148;8.582;2022-10-16T08:43:33;1.17;;;0.90;;
24557;SDS011;12726;49.148;8.582;2022-10-16T08:46:32;4.80;;;1.20;;
24557;SDS011;12726;49.148;8.582;2022-10-16T08:49:28;3.90;;;1.55;;
24557;SDS011;12726;49.148;8.582;2022-10-16T08:52:15;3.95;;;1.10;;
24557;SDS011;12726;49.148;8.582;2022-10-16T08:55:00;5.03;;;1.17;;
24557;SDS011;12726;49.148;8.582;2022-10-16T08:57:46;5.03;;;1.80;;
24557;SDS011;12726;49.148;8.582;2022-10-16T09:00:33;3.78;;;0.98;;
24557;SDS011;12726;49.148;8.582;2022-10-16T09:03:29;3.20;;;1.30;;
24557;SDS011;12726;49.148;8.582;2022-10-16T09:06:27;3.63;;;0.93;;
24557;SDS011;12726;49.148;8.582;2022-10-16T09:09:27;4.00;;;0.95;;
24557;SDS011;12726;49.148;8.582;2022-10-16T09:12:25;4.65;;;1.08;;
24557;SDS011;12726;49.148;8.582;2022-10-16T09:15:20;6.43;;;1.10;;
24557;SDS011;12726;49.148;8.582;2022-10-16T09:18:16;5.27;;;1.00;;
24557;SDS011;12726;49.148;8.582;2022-10-16T09:21:09;3.28;;;1.00;;
24557;SDS011;12726;49.148;8.582;2022-10-16T09:24:04;5.43;;;1.30;;
24557;SDS011;12726;49.148;8.582;2022-10-16T09:26:56;3.13;;;1.55;;
24557;SDS011;12726;49.148;8.582;2022-10-16T09:29:42;3.40;;;1.10;;
24557;SDS011;12726;49.148;8.582;2022-10-16T09:32:27;5.97;;;1.48;;
24557;SDS011;12726;49.148;8.582;2022-10-16T09:35:15;4.03;;;1.45;;
24557;SDS011;12726;49.148;8.582;2022-10-16T09:38:03;2.42;;;1.10;;
24557;SDS011;12726;49.148;8.582;2022-10-16T09:40:49;1.95;;;1.25;;
24557;SDS011;12726;49.148;8.582;2022-10-16T09:43:36;4.95;;;1.00;;
24557;SDS011;12726;49.148;8.582;2022-10-16T09:46:26;3.17;;;0.77;;
24557;SDS011;12726;49.148;8.582;2022-10-16T09:49:20;3.00;;;0.70;;
24557;SDS011;12726;49.148;8.582;2022-10-16T09:52:12;2.67;;;0.80;;
24557;SDS011;12726;49.148;8.582;2022-10-16T09:54:59;4.90;;;1.20;;
24557;SDS011;12726;49.148;8.582;2022-10-16T09:57:49;2.63;;;1.00;;
24557;SDS011;12726;49.148;8.582;2022-10-16T10:00:35;2.00;;;0.82;;
24557;SDS011;12726;49.148;8.582;2022-10-16T10:03:30;2.60;;;0.82;;
24557;SDS011;12726;49.148;8.582;2022-10-16T10:06:23;3.70;;;1.13;;
24557;SDS011;12726;49.148;8.582;2022-10-16T10:09:19;3.65;;;1.10;;
24557;SDS011;12726;49.148;8.582;2022-10-16T10:12:14;2.50;;;0.90;;
24557;SDS011;12726;49.148;8.582;2022-10-16T10:15:04;2.83;;;1.10;;
24557;SDS011;12726;49.148;8.582;2022-10-16T10:17:52;3.33;;;0.93;;
24557;SDS011;12726;49.148;8.582;2022-10-16T10:20:39;3.00;;;1.00;;
24557;SDS011;12726;49.148;8.582;2022-10-16T10:23:25;2.28;;;1.00;;
24557;SDS011;12726;49.148;8.582;2022-10-16T10:26:14;3.90;;;1.15;;
24557;SDS011;12726;49.148;8.582;2022-10-16T10:29:03;6.63;;;1.13;;
24557;SDS011;12726;49.148;8.582;2022-10-16T10:32:01;4.88;;;1.15;;
24557;SDS011;12726;49.148;8.582;2022-10-16T10:34:58;3.90;;;1.15;;
24557;SDS011;12726;49.148;8.582;2022-10-16T10:38:01;5.72;;;1.13;;
24557;SDS011;12726;49.148;8.582;2022-10-16T10:40:58;1.60;;;0.70;;
24557;SDS011;12726;49.148;8.582;2022-10-16T10:44:01;6.20;;;1.20;;
24557;SDS011;12726;49.148;8.582;2022-10-16T10:46:54;0.98;;;0.60;;
24557;SDS011;12726;49.148;8.582;2022-10-16T10:49:46;5.15;;;0.98;;
24557;SDS011;12726;49.148;8.582;2022-10-16T10:52:42;7.60;;;0.95;;
24557;SDS011;12726;49.148;8.582;2022-10-16T10:55:38;7.55;;;1.00;;
24557;SDS011;12726;49.148;8.582;2022-10-16T10:58:33;1.60;;;0.80;;
24557;SDS011;12726;49.148;8.582;2022-10-16T11:01:30;2.83;;;0.93;;
24557;SDS011;12726;49.148;8.582;2022-10-16T11:04:33;2.47;;;0.85;;
24557;SDS011;12726;49.148;8.582;2022-10-16T11:07:30;1.92;;;0.60;;
24557;SDS011;12726;49.148;8.582;2022-10-16T11:10:28;3.13;;;0.80;;
24557;SDS011;12726;49.148;8.582;2022-10-16T11:13:27;1.90;;;1.00;;
24557;SDS011;12726;49.148;8.582;2022-10-16T11:16:19;2.58;;;0.70;;
24557;SDS011;12726;49.148;8.582;2022-10-16T11:19:14;6.13;;;1.20;;
24557;SDS011;12726;49.148;8.582;2022-10-16T11:22:12;3.65;;;1.60;;
24557;SDS011;12726;49.148;8.582;2022-10-16T11:25:04;3.42;;;1.02;;
24557;SDS011;12726;49.148;8.582;2022-10-16T11:28:01;4.30;;;0.80;;
24557;SDS011;12726;49.148;8.582;2022-10-16T11:30:51;3.22;;;1.10;;
24557;SDS011;12726;49.148;8.582;2022-10-16T11:33:43;2.55;;;0.98;;
24557;SDS011;12726;49.148;8.582;2022-10-16T11:36:35;4.40;;;1.15;;
24557;SDS011;12726;49.148;8.582;2022-10-16T11:39:24;2.10;;;1.15;;
24557;SDS011;12726;49.148;8.582;2022-10-16T11:42:13;4.15;;;1.20;;
24557;SDS011;12726;49.148;8.582;2022-10-16T11:45:08;5.18;;;1.20;;
24557;SDS011;12726;49.148;8.582;2022-10-16T11:48:02;2.65;;;1.08;;
24557;SDS011;12726;49.148;8.582;2022-10-16T11:50:58;3.85;;;1.20;;
24557;SDS011;12726;49.148;8.582;2022-10-16T11:53:53;5.03;;;1.08;;
24557;SDS011;12726;49.148;8.582;2022-10-16T11:56:44;5.95;;;1.15;;
24557;SDS011;12726;49.148;8.582;2022-10-16T11:59:32;2.67;;;1.08;;
24557;SDS011;12726;49.148;8.582;2022-10-16T12:02:28;4.13;;;1.05;;
24557;SDS011;12726;49.148;8.582;2022-10-16T12:05:22;4.32;;;1.33;;
24557;SDS011;12726;49.148;8.582;2022-10-16T12:08:15;2.58;;;1.10;;
24557;SDS011;12726;49.148;8.582;2022-10-16T12:11:09;2.80;;;1.27;;
24557;SDS011;12726;49.148;8.582;2022-10-16T12:14:19;1.73;;;1.08;;
24557;SDS011;12726;49.148;8.582;2022-10-16T12:17:23;5.90;;;1.17;;
24557;SDS011;12726;49.148;8.582;2022-10-16T12:23:17;5.57;;;1.15;;
24557;SDS011;12726;49.148;8.582;2022-10-16T12:26:05;3.47;;;1.27;;
24557;SDS011;12726;49.148;8.582;2022-10-16T12:28:52;2.20;;;1.10;;
24557;SDS011;12726;49.148;8.582;2022-10-16T12:31:42;4.22;;;1.00;;
24557;SDS011;12726;49.148;8.582;2022-10-16T12:34:34;1.90;;;0.95;;
24557;SDS011;12726;49.148;8.582;2022-10-16T12:37:25;4.28;;;1.30;;
24557;SDS011;12726;49.148;8.582;2022-10-16T12:40:13;3.53;;;0.98;;
24557;SDS011;12726;49.148;8.582;2022-10-16T12:43:10;2.60;;;1.60;;
24557;SDS011;12726;49.148;8.582;2022-10-16T12:46:04;6.22;;;1.45;;
24557;SDS011;12726;49.148;8.582;2022-10-16T12:49:06;3.35;;;1.30;;
24557;SDS011;12726;49.148;8.582;2022-10-16T12:55:12;3.72;;;1.20;;
24557;SDS011;12726;49.148;8.582;2022-10-16T12:58:08;2.22;;;1.00;;
24557;SDS011;12726;49.148;8.582;2022-10-16T13:01:07;6.78;;;1.25;;
24557;SDS011;12726;49.148;8.582;2022-10-16T13:07:18;3.83;;;1.00;;
24557;SDS011;12726;49.148;8.582;2022-10-16T13:10:18;1.52;;;0.90;;
24557;SDS011;12726;49.148;8.582;2022-10-16T13:13:13;4.20;;;1.33;;
24557;SDS011;12726;49.148;8.582;2022-10-16T13:16:12;3.38;;;1.15;;
24557;SDS011;12726;49.148;8.582;2022-10-16T13:19:07;1.95;;;1.00;;
24557;SDS011;12726;49.148;8.582;2022-10-16T13:22:02;1.92;;;1.02;;
24557;SDS011;12726;49.148;8.582;2022-10-16T13:24:59;4.53;;;1.20;;
24557;SDS011;12726;49.148;8.582;2022-10-16T13:27:59;2.83;;;1.02;;
24557;SDS011;12726;49.148;8.582;2022-10-16T13:30:50;3.03;;;1.30;;
24557;SDS011;12726;49.148;8.582;2022-10-16T13:33:39;1.88;;;1.08;;
24557;SDS011;12726;49.148;8.582;2022-10-16T13:36:28;3.15;;;1.00;;
24557;SDS011;12726;49.148;8.582;2022-10-16T13:39:16;2.47;;;1.30;;
24557;SDS011;12726;49.148;8.582;2022-10-16T13:42:07;1.77;;;1.20;;
24557;SDS011;12726;49.148;8.582;2022-10-16T13:44:56;1.77;;;1.45;;
24557;SDS011;12726;49.148;8.582;2022-10-16T13:47:42;3.17;;;1.30;;
24557;SDS011;12726;49.148;8.582;2022-10-16T13:50:29;4.50;;;1.13;;
24557;SDS011;12726;49.148;8.582;2022-10-16T13:53:14;4.57;;;1.60;;
24557;SDS011;12726;49.148;8.582;2022-10-16T13:56:01;3.30;;;1.20;;
24557;SDS011;12726;49.148;8.582;2022-10-16T13:58:57;1.77;;;1.27;;
24557;SDS011;12726;49.148;8.582;2022-10-16T14:01:44;1.70;;;1.30;;
24557;SDS011;12726;49.148;8.582;2022-10-16T14:04:30;3.45;;;1.10;;
24557;SDS011;12726;49.148;8.582;2022-10-16T14:07:20;5.35;;;1.27;;
24557;SDS011;12726;49.148;8.582;2022-10-16T14:10:18;4.05;;;1.45;;
24557;SDS011;12726;49.148;8.582;2022-10-16T14:13:07;3.30;;;1.38;;
24557;SDS011;12726;49.148;8.582;2022-10-16T14:16:00;3.47;;;1.23;;
24557;SDS011;12726;49.148;8.582;2022-10-16T14:18:54;4.00;;;1.50;;
24557;SDS011;12726;49.148;8.582;2022-10-16T14:21:42;3.20;;;1.38;;
24557;SDS011;12726;49.148;8.582;2022-10-16T14:24:32;2.15;;;1.42;;
24557;SDS011;12726;49.148;8.582;2022-10-16T14:27:24;1.95;;;1.20;;
24557;SDS011;12726;49.148;8.582;2022-10-16T14:30:15;2.78;;;1.35;;
24557;SDS011;12726;49.148;8.582;2022-10-16T14:33:02;1.50;;;1.10;;
24557;SDS011;12726;49.148;8.582;2022-10-16T14:36:00;3.28;;;1.67;;
24557;SDS011;12726;49.148;8.582;2022-10-16T14:38:49;2.83;;;1.25;;
24557;SDS011;12726;49.148;8.582;2022-10-16T14:41:44;2.60;;;1.25;;
24557;SDS011;12726;49.148;8.582;2022-10-16T14:44:32;4.53;;;1.67;;
24557;SDS011;12726;49.148;8.582;2022-10-16T14:47:19;5.03;;;1.40;;
24557;SDS011;12726;49.148;8.582;2022-10-16T14:50:09;1.60;;;1.20;;
24557;SDS011;12726;49.148;8.582;2022-10-16T14:52:54;3.95;;;1.30;;
24557;SDS011;12726;49.148;8.582;2022-10-16T14:55:40;3.05;;;1.70;;
24557;SDS011;12726;49.148;8.582;2022-10-16T14:58:27;3.30;;;1.50;;
24557;SDS011;12726;49.148;8.582;2022-10-16T15:01:13;2.55;;;1.50;;
24557;SDS011;12726;49.148;8.582;2022-10-16T15:03:58;2.53;;;1.35;;
24557;SDS011;12726;49.148;8.582;2022-10-16T15:06:44;3.58;;;1.27;;
24557;SDS011;12726;49.148;8.582;2022-10-16T15:09:30;1.70;;;1.20;;
24557;SDS011;12726;49.148;8.582;2022-10-16T15:12:16;3.17;;;1.60;;
24557;SDS011;12726;49.148;8.582;2022-10-16T15:15:05;3.75;;;1.65;;
24557;SDS011;12726;49.148;8.582;2022-10-16T15:18:11;4.70;;;1.63;;
24557;SDS011;12726;49.148;8.582;2022-10-16T15:20:59;5.53;;;2.92;;
24557;SDS011;12726;49.148;8.582;2022-10-16T15:23:49;3.83;;;1.70;;
24557;SDS011;12726;49.148;8.582;2022-10-16T15:26:45;3.38;;;1.67;;
24557;SDS011;12726;49.148;8.582;2022-10-16T15:29:39;3.28;;;1.48;;
24557;SDS011;12726;49.148;8.582;2022-10-16T15:32:34;3.30;;;1.50;;
24557;SDS011;12726;49.148;8.582;2022-10-16T15:35:28;1.55;;;1.20;;
24557;SDS011;12726;49.148;8.582;2022-10-16T15:38:22;3.13;;;1.33;;
24557;SDS011;12726;49.148;8.582;2022-10-16T15:41:14;4.07;;;1.75;;
24557;SDS011;12726;49.148;8.582;2022-10-16T15:44:03;4.22;;;1.90;;
24557;SDS011;12726;49.148;8.582;2022-10-16T15:46:56;3.15;;;1.80;;
24557;SDS011;12726;49.148;8.582;2022-10-16T15:49:47;3.20;;;1.80;;
24557;SDS011;12726;49.148;8.582;2022-10-16T15:52:37;4.75;;;1.95;;
24557;SDS011;12726;49.148;8.582;2022-10-16T15:55:27;4.72;;;2.30;;
24557;SDS011;12726;49.148;8.582;2022-10-16T15:58:13;5.78;;;2.05;;
24557;SDS011;12726;49.148;8.582;2022-10-16T16:01:00;5.20;;;1.70;;
24557;SDS011;12726;49.148;8.582;2022-10-16T16:03:47;2.75;;;1.40;;
24557;SDS011;12726;49.148;8.582;2022-10-16T16:09:30;2.17;;;1.45;;
24557;SDS011;12726;49.148;8.582;2022-10-16T16:12:18;3.20;;;1.85;;
24557;SDS011;12726;49.148;8.582;2022-10-16T16:15:04;3.47;;;1.80;;
24557;SDS011;12726;49.148;8.582;2022-10-16T16:17:51;6.55;;;1.83;;
24557;SDS011;12726;49.148;8.582;2022-10-16T16:20:36;2.67;;;1.65;;
24557;SDS011;12726;49.148;8.582;2022-10-16T16:23:23;4.50;;;2.05;;
24557;SDS011;12726;49.148;8.582;2022-10-16T16:26:11;3.10;;;1.73;;
24557;SDS011;12726;49.148;8.582;2022-10-16T16:28:57;2.95;;;1.90;;
24557;SDS011;12726;49.148;8.582;2022-10-16T16:31:43;3.55;;;2.17;;
24557;SDS011;12726;49.148;8.582;2022-10-16T16:34:31;3.20;;;2.50;;
24557;SDS011;12726;49.148;8.582;2022-10-16T16:37:16;5.75;;;2.67;;
24557;SDS011;12726;49.148;8.582;2022-10-16T16:40:03;8.15;;;3.25;;
24557;SDS011;12726;49.148;8.582;2022-10-16T16:42:50;4.50;;;2.88;;
24557;SDS011;12726;49.148;8.582;2022-10-16T16:45:35;5.22;;;2.90;;
24557;SDS011;12726;49.148;8.582;2022-10-16T16:48:21;6.63;;;3.30;;
24557;SDS011;12726;49.148;8.582;2022-10-16T16:51:07;5.55;;;2.80;;
24557;SDS011;12726;49.148;8.582;2022-10-16T16:53:59;4.43;;;3.35;;
24557;SDS011;12726;49.148;8.582;2022-10-16T16:56:46;4.55;;;3.70;;
24557;SDS011;12726;49.148;8.582;2022-10-16T16:59:32;4.68;;;3.80;;
24557;SDS011;12726;49.148;8.582;2022-10-16T17:02:18;7.45;;;3.58;;
24557;SDS011;12726;49.148;8.582;2022-10-16T17:05:04;4.55;;;3.40;;
24557;SDS011;12726;49.148;8.582;2022-10-16T17:07:50;5.53;;;3.50;;
24557;SDS011;12726;49.148;8.582;2022-10-16T17:10:41;4.47;;;2.88;;
24557;SDS011;12726;49.148;8.582;2022-10-16T17:13:30;4.28;;;2.92;;